Time;durP1;ratioP1;P1;durP2;ratioP2;P2;SDS_P1;SDS_P2;PMS_P1;PMS_P2;Temp;Humidity;BMP_temperature;BMP_pressure;BME280_temperature;BME280_humidity;BME280_pressure;Samples;Min_cycle;Max_cycle;Signal;HPM_P1;HPM_P2
2024/01/06 00:01:41;;;;;;;8.05;3.25;;;6.00;99.90;;;;;;5059467;28;20252;-74
2024/01/06 00:04:06;;;;;;;8.10;2.67;;;6.00;99.90;;;;;;5044309;28;20033;-74
2024/01/06 00:06:32;;;;;;;6.03;2.38;;;6.10;99.90;;;;;;5044291;28;20025;-74
2024/01/06 00:08:58;;;;;;;7.70;2.70;;;6.10;99.90;;;;;;5044203;28;20053;-74
2024/01/06 00:11:24;;;;;;;5.47;2.15;;;6.10;99.90;;;;;;5042453;28;20152;-73
2024/01/06 00:13:49;;;;;;;4.80;2.00;;;6.10;99.90;;;;;;5043904;28;20033;-74
2024/01/06 00:16:19;;;;;;;6.53;2.30;;;6.10;99.90;;;;;;5059552;28;20329;-75
2024/01/06 00:18:47;;;;;;;4.82;1.65;;;6.10;99.90;;;;;;5043253;28;20021;-75
2024/01/06 00:21:12;;;;;;;4.05;1.63;;;6.10;99.90;;;;;;5044350;28;20032;-76
2024/01/06 00:23:40;;;;;;;4.65;1.98;;;6.10;99.90;;;;;;5026271;28;20104;-73
2024/01/06 00:26:12;;;;;;;3.80;1.67;;;6.10;99.90;;;;;;5044282;28;20033;-76
2024/01/06 00:28:42;;;;;;;4.70;1.70;;;6.10;99.90;;;;;;5043147;28;20036;-74
2024/01/06 00:31:08;;;;;;;4.47;1.70;;;6.00;99.90;;;;;;5059469;28;20029;-74
2024/01/06 00:33:33;;;;;;;6.35;1.60;;;6.10;99.90;;;;;;5058863;28;20063;-73
2024/01/06 00:35:59;;;;;;;5.97;1.55;;;6.00;99.90;;;;;;5043747;28;20315;-73
2024/01/06 00:38:25;;;;;;;3.35;1.50;;;6.00;99.90;;;;;;5059261;28;20029;-74
2024/01/06 00:40:51;;;;;;;6.78;1.40;;;6.00;99.90;;;;;;5043157;28;20095;-73
2024/01/06 00:43:16;;;;;;;4.32;1.27;;;6.10;99.90;;;;;;5058857;28;20097;-74
2024/01/06 00:45:42;;;;;;;3.58;1.10;;;6.10;99.90;;;;;;5042706;28;20177;-73
2024/01/06 00:48:08;;;;;;;3.08;1.45;;;6.20;99.90;;;;;;5043690;28;20083;-74
2024/01/06 00:50:33;;;;;;;3.92;1.35;;;6.20;99.90;;;;;;5042936;28;20033;-75
2024/01/06 00:52:59;;;;;;;3.50;1.08;;;6.10;99.90;;;;;;5045154;28;20072;-74
2024/01/06 00:55:25;;;;;;;6.97;1.38;;;6.10;99.90;;;;;;5063143;28;20319;-74
2024/01/06 00:57:51;;;;;;;4.28;1.23;;;6.10;99.90;;;;;;5062800;28;20017;-74
2024/01/06 01:00:17;;;;;;;4.18;1.00;;;6.10;99.90;;;;;;5057665;28;20097;-72
2024/01/06 01:02:42;;;;;;;7.32;1.30;;;6.10;99.90;;;;;;5055417;28;20037;-74
2024/01/06 01:05:08;;;;;;;4.05;1.08;;;6.10;99.90;;;;;;5062052;28;20024;-73
2024/01/06 01:07:34;;;;;;;8.43;1.73;;;6.10;99.90;;;;;;5062362;28;20025;-74
2024/01/06 01:10:00;;;;;;;5.32;1.30;;;6.10;99.90;;;;;;5046827;28;20324;-75
2024/01/06 01:12:26;;;;;;;4.05;1.00;;;6.10;99.90;;;;;;5042766;28;20045;-72
2024/01/06 01:14:52;;;;;;;3.67;1.10;;;6.10;99.90;;;;;;5041197;28;20099;-75
2024/01/06 01:17:18;;;;;;;4.18;1.45;;;6.10;99.90;;;;;;5042654;28;20032;-74
2024/01/06 01:19:44;;;;;;;4.07;1.10;;;6.10;99.90;;;;;;5040870;28;20219;-73
2024/01/06 01:22:10;;;;;;;2.88;0.95;;;6.20;99.90;;;;;;5042958;28;20048;-74
2024/01/06 01:24:36;;;;;;;3.85;0.93;;;6.10;99.90;;;;;;5042266;28;20327;-75
2024/01/06 01:27:01;;;;;;;3.15;0.95;;;6.20;99.90;;;;;;5041681;28;20022;-75
2024/01/06 01:29:27;;;;;;;4.43;1.00;;;6.20;99.90;;;;;;5058179;28;20029;-75
2024/01/06 01:31:53;;;;;;;5.25;1.23;;;6.10;99.90;;;;;;5058276;28;20105;-74
2024/01/06 01:34:19;;;;;;;4.10;0.85;;;6.20;99.90;;;;;;5042791;28;20029;-75
2024/01/06 01:36:45;;;;;;;4.32;1.20;;;6.10;99.90;;;;;;5040790;28;20025;-73
2024/01/06 01:39:11;;;;;;;5.63;0.90;;;6.20;99.90;;;;;;5042844;28;20044;-76
2024/01/06 01:41:36;;;;;;;4.93;0.95;;;6.10;99.90;;;;;;5056892;28;20029;-75
2024/01/06 01:44:02;;;;;;;10.82;1.58;;;6.20;99.90;;;;;;5041795;28;20025;-74
2024/01/06 01:46:29;;;;;;;5.68;1.10;;;6.10;99.90;;;;;;5042197;28;20053;-73
2024/01/06 01:48:57;;;;;;;5.80;1.48;;;6.00;99.90;;;;;;5042565;28;20029;-75
2024/01/06 01:51:29;;;;;;;;;;;6.10;99.90;;;;;;5042729;28;20033;-74
2024/01/06 01:53:59;;;;;;;5.80;1.20;;;6.00;99.90;;;;;;5042464;28;19931;-75
2024/01/06 01:56:25;;;;;;;6.25;1.48;;;6.10;99.90;;;;;;5057639;28;20037;-76
2024/01/06 01:58:51;;;;;;;5.20;1.10;;;6.10;99.90;;;;;;5040611;28;20038;-74
2024/01/06 02:01:17;;;;;;;4.40;1.13;;;6.20;99.90;;;;;;5042499;28;20029;-75
2024/01/06 02:03:43;;;;;;;4.80;0.98;;;6.20;99.90;;;;;;5037894;28;20077;-73
2024/01/06 02:06:12;;;;;;;3.55;0.88;;;6.10;99.90;;;;;;5042054;28;20034;-73
2024/01/06 02:08:38;;;;;;;5.03;1.00;;;6.10;99.90;;;;;;5041493;28;20185;-74
2024/01/06 02:11:05;;;;;;;6.95;1.27;;;6.20;99.90;;;;;;5042032;28;20040;-74
2024/01/06 02:13:37;;;;;;;4.22;1.13;;;6.10;99.90;;;;;;5041759;28;20043;-75
2024/01/06 02:16:04;;;;;;;5.10;1.42;;;6.10;99.90;;;;;;5042284;28;20092;-73
2024/01/06 02:18:31;;;;;;;4.50;1.00;;;6.10;99.90;;;;;;5041206;28;20041;-73
2024/01/06 02:20:59;;;;;;;5.00;1.20;;;6.00;99.90;;;;;;5042032;28;20037;-74
2024/01/06 02:23:25;;;;;;;4.50;1.15;;;6.00;99.90;;;;;;5042023;28;20020;-74
2024/01/06 02:25:51;;;;;;;3.92;1.02;;;6.00;99.90;;;;;;5041392;28;20180;-76
2024/01/06 02:28:16;;;;;;;4.10;0.90;;;6.00;99.90;;;;;;5041249;28;20038;-74
2024/01/06 02:30:43;;;;;;;3.95;1.10;;;6.00;99.90;;;;;;5041451;28;20365;-74
2024/01/06 02:33:08;;;;;;;3.85;1.10;;;6.00;99.90;;;;;;5042309;28;20067;-75
2024/01/06 02:35:35;;;;;;;3.35;1.02;;;6.00;99.90;;;;;;5041598;28;20061;-75
2024/01/06 02:38:00;;;;;;;6.18;1.20;;;6.00;99.90;;;;;;5040929;28;20060;-74
2024/01/06 02:40:26;;;;;;;8.43;1.00;;;6.00;99.90;;;;;;5040987;28;20041;-74
2024/01/06 02:42:52;;;;;;;5.72;1.40;;;6.10;99.90;;;;;;5040207;28;20037;-75
2024/01/06 02:45:17;;;;;;;3.70;0.68;;;6.10;99.90;;;;;;5057695;28;20033;-74
2024/01/06 02:47:43;;;;;;;4.47;0.90;;;6.10;99.90;;;;;;5040053;28;20056;-76
2024/01/06 02:50:09;;;;;;;5.03;1.23;;;6.00;99.90;;;;;;5042056;28;20049;-76
2024/01/06 02:52:34;;;;;;;2.30;0.82;;;6.10;99.90;;;;;;5042112;28;20052;-74
2024/01/06 02:55:00;;;;;;;3.20;1.40;;;6.10;99.90;;;;;;5045848;28;20044;-74
2024/01/06 02:57:28;;;;;;;4.43;0.85;;;6.00;99.90;;;;;;5044765;28;20028;-74
2024/01/06 02:59:53;;;;;;;4.43;1.10;;;6.00;99.90;;;;;;5045742;28;20029;-73
2024/01/06 03:02:19;;;;;;;5.20;0.90;;;6.00;99.90;;;;;;5054051;28;20039;-74
2024/01/06 03:04:45;;;;;;;1.98;0.77;;;6.00;99.90;;;;;;5063873;28;20025;-74
2024/01/06 03:07:10;;;;;;;5.13;0.93;;;6.00;99.90;;;;;;5065376;28;20027;-75
2024/01/06 03:09:36;;;;;;;5.35;1.08;;;6.00;99.90;;;;;;5064854;28;20033;-73
2024/01/06 03:12:02;;;;;;;4.57;1.23;;;5.90;99.90;;;;;;5063326;28;20107;-74
2024/01/06 03:14:28;;;;;;;4.97;1.52;;;6.00;99.90;;;;;;5064698;28;20021;-75
2024/01/06 03:16:53;;;;;;;4.18;1.30;;;5.90;99.90;;;;;;5065049;28;20033;-73
2024/01/06 03:19:19;;;;;;;2.15;0.90;;;5.90;99.90;;;;;;5064173;28;20025;-72
2024/01/06 03:21:45;;;;;;;5.20;1.10;;;5.90;99.90;;;;;;5063351;28;20040;-74
2024/01/06 03:24:11;;;;;;;3.20;1.10;;;5.80;99.90;;;;;;5065003;28;20056;-73
2024/01/06 03:26:36;;;;;;;5.45;1.15;;;5.80;99.90;;;;;;5046694;28;20083;-72
2024/01/06 03:29:02;;;;;;;2.70;0.90;;;5.80;99.90;;;;;;5057700;28;20041;-74
2024/01/06 03:31:31;;;;;;;4.57;1.27;;;5.80;99.90;;;;;;5044335;28;20045;-76
2024/01/06 03:33:57;;;;;;;5.05;0.80;;;5.80;99.90;;;;;;5044991;28;20041;-73
2024/01/06 03:36:22;;;;;;;4.18;1.00;;;5.80;99.90;;;;;;5044750;28;20029;-73
2024/01/06 03:38:48;;;;;;;4.40;1.10;;;5.70;99.90;;;;;;5044242;28;20041;-74
2024/01/06 03:41:13;;;;;;;8.77;1.10;;;5.70;99.90;;;;;;5044920;28;20096;-73
2024/01/06 03:43:39;;;;;;;4.78;1.10;;;5.70;99.90;;;;;;5044161;28;20025;-75
2024/01/06 03:46:05;;;;;;;6.53;1.20;;;5.70;99.90;;;;;;5042891;28;20041;-73
2024/01/06 03:48:31;;;;;;;3.95;1.10;;;5.70;99.90;;;;;;5044088;28;20032;-74
2024/01/06 03:50:59;;;;;;;6.03;1.20;;;5.70;99.90;;;;;;5044268;28;20060;-75
2024/01/06 03:53:25;;;;;;;4.43;0.97;;;5.70;99.90;;;;;;5044643;28;20093;-74
2024/01/06 03:55:51;;;;;;;4.13;1.02;;;5.70;99.90;;;;;;5043572;28;20084;-76
2024/01/06 03:58:17;;;;;;;3.60;0.90;;;5.70;99.90;;;;;;5026924;28;20017;-75
2024/01/06 04:00:43;;;;;;;4.25;1.17;;;5.70;99.90;;;;;;5043864;28;20037;-75
2024/01/06 04:03:09;;;;;;;4.72;1.25;;;5.70;99.90;;;;;;5058284;28;20040;-73
2024/01/06 04:05:34;;;;;;;4.43;0.90;;;5.70;99.90;;;;;;5043080;28;20333;-76
2024/01/06 04:08:00;;;;;;;2.97;0.95;;;5.70;99.90;;;;;;5044397;28;20029;-74
2024/01/06 04:10:26;;;;;;;4.88;1.42;;;5.60;99.90;;;;;;5044014;28;20021;-75
2024/01/06 04:12:51;;;;;;;4.85;1.00;;;5.60;99.90;;;;;;5043626;28;20029;-73
2024/01/06 04:15:17;;;;;;;4.90;1.00;;;5.60;99.90;;;;;;5044136;28;20045;-76
2024/01/06 04:17:43;;;;;;;4.82;1.00;;;5.60;99.90;;;;;;5059019;28;20052;-74
2024/01/06 04:20:12;;;;;;;3.75;1.25;;;5.60;99.90;;;;;;5043990;28;20188;-72
2024/01/06 04:22:38;;;;;;;4.22;1.23;;;5.60;99.90;;;;;;5043386;28;20051;-74
2024/01/06 04:25:04;;;;;;;6.25;1.95;;;5.60;99.90;;;;;;5043780;28;20044;-73
2024/01/06 04:27:30;;;;;;;6.18;1.17;;;5.60;99.90;;;;;;5043165;28;20212;-74
2024/01/06 04:29:56;;;;;;;4.63;1.10;;;5.60;99.90;;;;;;5043730;28;20044;-75
2024/01/06 04:32:22;;;;;;;6.80;1.10;;;5.60;99.90;;;;;;5043815;28;20033;-74
2024/01/06 04:34:48;;;;;;;6.78;1.48;;;5.60;99.90;;;;;;5043281;28;20044;-76
2024/01/06 04:37:14;;;;;;;5.43;1.40;;;5.60;99.90;;;;;;5042836;28;20041;-72
2024/01/06 04:39:40;;;;;;;4.00;1.10;;;5.60;99.90;;;;;;5043190;28;20057;-74
2024/01/06 04:42:06;;;;;;;3.60;1.00;;;5.60;99.90;;;;;;5043460;28;20079;-73
2024/01/06 04:44:32;;;;;;;4.10;1.17;;;5.50;99.90;;;;;;5041838;28;20053;-73
2024/01/06 04:46:57;;;;;;;3.00;1.08;;;5.50;99.90;;;;;;5042023;28;20053;-72
2024/01/06 04:49:23;;;;;;;4.53;1.15;;;5.50;99.90;;;;;;5043293;28;20227;-75
2024/01/06 04:51:49;;;;;;;3.83;1.05;;;5.50;99.90;;;;;;5042784;28;20044;-75
2024/01/06 04:54:14;;;;;;;5.15;1.20;;;5.50;99.90;;;;;;5043778;28;20037;-75
2024/01/06 04:56:40;;;;;;;4.32;1.60;;;5.50;99.90;;;;;;5041636;28;20021;-75
2024/01/06 04:59:06;;;;;;;6.50;1.20;;;5.40;99.90;;;;;;5043059;28;20267;-75
2024/01/06 05:01:32;;;;;;;4.88;1.00;;;5.40;99.90;;;;;;5045978;28;20029;-75
2024/01/06 05:03:58;;;;;;;8.63;1.42;;;5.50;99.90;;;;;;5063481;28;20016;-73
2024/01/06 05:06:25;;;;;;;3.63;0.90;;;5.50;99.90;;;;;;5062877;28;20342;-74
2024/01/06 05:08:50;;;;;;;3.05;0.88;;;5.50;99.90;;;;;;5062470;28;20028;-74
2024/01/06 05:11:16;;;;;;;4.78;1.45;;;5.50;99.90;;;;;;5061307;28;20036;-73
2024/01/06 05:13:42;;;;;;;3.90;1.13;;;5.50;99.90;;;;;;5062398;28;20316;-75
2024/01/06 05:16:08;;;;;;;4.22;1.20;;;5.50;99.90;;;;;;5061969;28;20033;-73
2024/01/06 05:18:35;;;;;;;4.40;1.20;;;5.60;99.90;;;;;;5063216;28;20089;-74
2024/01/06 05:21:01;;;;;;;4.03;1.08;;;5.60;99.90;;;;;;5062664;28;20031;-73
2024/01/06 05:23:27;;;;;;;2.83;0.77;;;5.60;99.90;;;;;;5061622;28;20074;-75
2024/01/06 05:25:53;;;;;;;5.07;1.20;;;5.60;99.90;;;;;;5062557;28;20024;-72
2024/01/06 05:28:19;;;;;;;3.08;1.05;;;5.60;99.90;;;;;;5056582;28;20029;-75
2024/01/06 05:30:44;;;;;;;4.82;1.77;;;5.60;99.90;;;;;;5042097;28;20029;-76
2024/01/06 05:33:12;;;;;;;3.53;1.10;;;5.70;99.90;;;;;;5043007;28;20060;-75
2024/01/06 05:35:39;;;;;;;6.00;1.05;;;5.70;99.90;;;;;;5040855;28;20061;-74
2024/01/06 05:38:04;;;;;;;6.20;0.93;;;5.70;99.90;;;;;;5042443;28;20060;-73
2024/01/06 05:40:30;;;;;;;6.68;1.20;;;5.60;99.90;;;;;;5042090;28;20021;-75
2024/01/06 05:42:56;;;;;;;3.95;1.00;;;5.70;99.90;;;;;;5042545;28;20216;-73
2024/01/06 05:45:22;;;;;;;3.03;0.90;;;5.60;99.90;;;;;;5043062;28;20044;-74
2024/01/06 05:47:48;;;;;;;5.45;1.10;;;5.60;99.90;;;;;;5042103;28;20266;-74
2024/01/06 05:50:16;;;;;;;5.10;1.20;;;5.60;99.90;;;;;;5042257;28;20033;-73
2024/01/06 05:52:42;;;;;;;5.43;1.20;;;5.60;99.90;;;;;;5041518;28;20080;-74
2024/01/06 05:55:08;;;;;;;3.53;1.17;;;5.60;99.90;;;;;;5041239;28;20304;-73
2024/01/06 05:57:34;;;;;;;3.38;1.10;;;5.60;99.90;;;;;;5041558;28;20272;-74
2024/01/06 06:00:00;;;;;;;6.13;1.23;;;5.60;99.90;;;;;;5042376;28;20033;-74
2024/01/06 06:02:26;;;;;;;4.15;1.10;;;5.60;99.90;;;;;;5042349;28;20027;-73
2024/01/06 06:04:52;;;;;;;3.90;1.05;;;5.60;99.90;;;;;;5041788;28;20037;-74
2024/01/06 06:07:18;;;;;;;6.43;0.93;;;5.50;99.90;;;;;;5042396;28;20048;-75
2024/01/06 06:09:47;;;;;;;6.45;1.00;;;5.50;99.90;;;;;;5041827;28;20017;-73
2024/01/06 06:12:13;;;;;;;4.97;1.00;;;5.50;99.90;;;;;;5042017;28;20037;-74
2024/01/06 06:14:39;;;;;;;7.40;1.30;;;5.50;99.90;;;;;;5041611;28;20053;-73
2024/01/06 06:17:05;;;;;;;5.78;1.42;;;5.50;99.90;;;;;;5057861;28;20022;-74
2024/01/06 06:19:31;;;;;;;6.10;1.38;;;5.50;99.90;;;;;;5041318;28;20037;-74
2024/01/06 06:21:56;;;;;;;3.90;1.27;;;5.50;99.90;;;;;;5042276;28;20029;-74
2024/01/06 06:24:22;;;;;;;4.93;1.25;;;5.50;99.90;;;;;;5057703;28;20268;-75
2024/01/06 06:26:48;;;;;;;7.43;1.60;;;5.60;99.90;;;;;;5041476;28;20037;-74
2024/01/06 06:29:14;;;;;;;4.55;1.17;;;5.60;99.90;;;;;;5044384;28;20037;-74
2024/01/06 06:31:39;;;;;;;5.40;1.10;;;5.50;99.90;;;;;;5045198;28;20085;-74
2024/01/06 06:34:05;;;;;;;4.63;1.67;;;5.50;99.90;;;;;;5046261;28;20209;-73
2024/01/06 06:36:31;;;;;;;3.60;1.27;;;5.60;99.90;;;;;;5045448;28;20033;-75
2024/01/06 06:38:58;;;;;;;2.60;1.10;;;5.50;99.90;;;;;;5046392;28;20041;-74
2024/01/06 06:41:25;;;;;;;2.60;1.10;;;5.60;99.90;;;;;;5046033;28;20029;-76
2024/01/06 06:43:50;;;;;;;4.38;1.30;;;5.60;99.90;;;;;;5045325;28;20060;-73
2024/01/06 06:46:19;;;;;;;5.30;1.20;;;5.60;99.90;;;;;;5045753;28;20049;-74
2024/01/06 06:48:45;;;;;;;6.53;1.30;;;5.60;99.90;;;;;;5044084;28;20021;-73
2024/01/06 06:51:17;;;;;;;2.85;1.05;;;5.60;99.90;;;;;;5044536;28;20033;-74
2024/01/06 06:53:43;;;;;;;3.85;1.23;;;5.70;99.90;;;;;;5044853;28;20056;-73
2024/01/06 06:56:08;;;;;;;4.95;1.20;;;5.70;99.90;;;;;;5045812;28;20033;-75
2024/01/06 06:58:34;;;;;;;5.07;1.27;;;5.80;99.90;;;;;;5043740;28;20042;-73
2024/01/06 07:01:00;;;;;;;3.83;1.40;;;5.70;99.90;;;;;;5045315;28;20177;-75
2024/01/06 07:03:26;;;;;;;5.07;1.17;;;5.70;99.90;;;;;;5063090;28;20108;-73
2024/01/06 07:05:52;;;;;;;5.50;1.25;;;5.70;99.90;;;;;;5049149;28;20037;-75
2024/01/06 07:08:18;;;;;;;3.30;1.30;;;5.70;99.90;;;;;;5045549;28;20089;-73
2024/01/06 07:10:44;;;;;;;5.72;1.55;;;5.70;99.90;;;;;;5043698;28;20026;-74
2024/01/06 07:13:10;;;;;;;4.90;1.20;;;5.70;99.90;;;;;;5044071;28;20315;-74
2024/01/06 07:15:35;;;;;;;2.95;1.30;;;5.80;99.90;;;;;;5044480;28;20023;-74
2024/01/06 07:18:01;;;;;;;5.07;1.45;;;5.80;99.90;;;;;;5044936;28;20021;-73
2024/01/06 07:20:27;;;;;;;2.75;1.27;;;5.70;99.90;;;;;;5045314;28;20034;-73
2024/01/06 07:22:53;;;;;;;3.95;1.30;;;5.80;99.90;;;;;;5060542;28;20243;-73
2024/01/06 07:25:19;;;;;;;5.13;1.23;;;5.70;99.90;;;;;;5045271;28;20087;-73
2024/01/06 07:27:44;;;;;;;4.55;1.33;;;5.80;99.90;;;;;;5044342;28;20096;-73
2024/01/06 07:30:10;;;;;;;3.40;1.20;;;5.80;99.90;;;;;;5044283;28;20052;-74
2024/01/06 07:32:36;;;;;;;5.30;1.38;;;5.80;99.90;;;;;;5044243;28;20033;-75
2024/01/06 07:35:04;;;;;;;4.90;1.38;;;5.80;99.90;;;;;;5027428;28;20045;-73
2024/01/06 07:37:30;;;;;;;;;;;5.80;99.90;;;;;;5044898;28;20029;-75
2024/01/06 07:39:56;;;;;;;4.97;1.55;;;5.70;99.90;;;;;;5042694;28;19905;-72
2024/01/06 07:42:22;;;;;;;5.18;1.17;;;5.70;99.90;;;;;;5044852;28;20059;-74
2024/01/06 07:44:47;;;;;;;3.83;1.08;;;5.70;99.90;;;;;;5044294;28;20275;-73
2024/01/06 07:47:14;;;;;;;3.78;1.20;;;5.70;99.90;;;;;;5060043;28;20045;-75
2024/01/06 07:49:40;;;;;;;3.78;1.00;;;5.70;99.90;;;;;;5044177;28;20029;-74
2024/01/06 07:52:06;;;;;;;2.65;0.90;;;5.80;99.90;;;;;;5043582;28;20049;-73
2024/01/06 07:54:31;;;;;;;5.00;2.00;;;5.80;99.90;;;;;;5043821;28;20040;-75
2024/01/06 07:56:57;;;;;;;3.97;1.38;;;5.90;99.90;;;;;;5044338;28;20083;-75
2024/01/06 07:59:23;;;;;;;4.40;1.40;;;5.90;99.90;;;;;;5044433;28;20025;-75
2024/01/06 08:01:49;;;;;;;4.18;1.58;;;5.90;99.90;;;;;;5049256;28;20033;-76
2024/01/06 08:04:15;;;;;;;3.40;1.00;;;6.00;99.90;;;;;;5063136;28;20025;-76
2024/01/06 08:06:40;;;;;;;4.00;1.50;;;6.00;99.90;;;;;;5062745;28;20043;-74
2024/01/06 08:09:06;;;;;;;3.58;1.42;;;6.00;99.90;;;;;;5047582;28;20033;-75
2024/01/06 08:11:32;;;;;;;4.40;1.23;;;6.00;99.90;;;;;;5043765;28;20045;-73
2024/01/06 08:13:57;;;;;;;4.05;0.98;;;6.00;99.90;;;;;;5043941;28;20032;-74
2024/01/06 08:16:23;;;;;;;4.75;1.00;;;6.10;99.90;;;;;;5043142;28;20112;-75
2024/01/06 08:18:52;;;;;;;4.28;1.00;;;6.10;99.90;;;;;;5042360;28;20026;-76
2024/01/06 08:21:17;;;;;;;4.68;1.13;;;6.10;99.90;;;;;;5044561;28;20244;-72
2024/01/06 08:23:43;;;;;;;1.75;0.90;;;6.20;99.90;;;;;;5043301;28;20130;-73
2024/01/06 08:26:09;;;;;;;2.92;1.00;;;6.20;99.90;;;;;;5043919;28;20311;-74
2024/01/06 08:28:34;;;;;;;2.72;1.10;;;6.20;99.90;;;;;;5058941;28;20304;-73
2024/01/06 08:31:00;;;;;;;1.63;0.80;;;6.30;99.90;;;;;;5042560;28;20324;-71
2024/01/06 08:33:26;;;;;;;2.65;1.02;;;6.30;99.90;;;;;;5043869;28;20029;-73
2024/01/06 08:35:51;;;;;;;2.60;1.13;;;6.30;99.90;;;;;;5043151;28;20018;-72
2024/01/06 08:38:18;;;;;;;2.17;0.90;;;6.30;99.90;;;;;;5043501;28;20100;-73
2024/01/06 08:40:47;;;;;;;3.10;1.10;;;6.30;99.90;;;;;;5042777;28;20044;-74
2024/01/06 08:43:13;;;;;;;2.78;0.90;;;6.30;99.90;;;;;;5042414;28;20025;-73
2024/01/06 08:45:39;;;;;;;2.40;0.95;;;6.40;99.90;;;;;;5042769;28;20033;-74
2024/01/06 08:48:05;;;;;;;1.98;1.00;;;6.50;99.90;;;;;;5043515;28;20353;-74
2024/01/06 08:50:31;;;;;;;3.40;1.17;;;6.50;99.90;;;;;;5042628;28;20036;-71
2024/01/06 08:52:56;;;;;;;3.83;1.10;;;6.50;99.90;;;;;;5042319;28;20083;-72
2024/01/06 08:55:22;;;;;;;2.88;1.13;;;6.50;99.90;;;;;;5043261;28;20128;-74
2024/01/06 08:57:49;;;;;;;2.97;1.42;;;6.60;99.90;;;;;;5043063;28;20045;-73
2024/01/06 09:00:15;;;;;;;3.80;0.90;;;6.60;99.90;;;;;;5042520;28;20037;-72
2024/01/06 09:02:41;;;;;;;2.75;1.10;;;6.80;99.90;;;;;;5055486;28;20036;-74
2024/01/06 09:05:07;;;;;;;2.83;0.93;;;6.90;99.90;;;;;;5063471;28;20032;-74
2024/01/06 09:07:32;;;;;;;2.85;0.90;;;7.00;99.90;;;;;;5062695;28;20059;-74
2024/01/06 09:09:59;;;;;;;2.22;0.65;;;7.00;99.80;;;;;;5063253;28;20025;-76
2024/01/06 09:12:29;;;;;;;2.25;0.70;;;6.90;99.50;;;;;;5063326;28;20188;-73
2024/01/06 09:14:55;;;;;;;2.05;0.88;;;6.90;99.70;;;;;;5053967;28;20025;-75
2024/01/06 09:17:22;;;;;;;3.47;1.20;;;7.00;99.60;;;;;;5043204;28;20022;-75
2024/01/06 09:19:48;;;;;;;2.53;0.93;;;6.90;99.90;;;;;;5042340;28;20029;-75
2024/01/06 09:22:14;;;;;;;2.60;1.10;;;6.90;99.90;;;;;;5041909;28;20189;-74
2024/01/06 09:24:40;;;;;;;1.38;0.70;;;6.90;99.90;;;;;;5042486;28;20362;-74
2024/01/06 09:27:06;;;;;;;3.55;1.00;;;7.00;99.90;;;;;;5041912;28;20021;-74
2024/01/06 09:29:31;;;;;;;3.00;1.05;;;7.20;99.80;;;;;;5041110;28;20304;-73
2024/01/06 09:31:57;;;;;;;2.35;0.70;;;7.10;99.90;;;;;;5042388;28;20135;-74
2024/01/06 09:34:23;;;;;;;4.05;0.88;;;7.10;99.60;;;;;;5058349;28;20028;-76
2024/01/06 09:36:48;;;;;;;2.92;0.80;;;7.30;99.70;;;;;;5040812;28;20029;-74
2024/01/06 09:39:14;;;;;;;1.88;0.70;;;7.30;99.60;;;;;;5042746;28;20096;-75
2024/01/06 09:41:40;;;;;;;2.72;1.48;;;7.30;99.50;;;;;;5048687;28;20020;-75
2024/01/06 09:44:06;;;;;;;2.88;0.98;;;7.40;99.50;;;;;;5050207;28;20033;-74
2024/01/06 09:46:31;;;;;;;2.03;0.80;;;7.40;99.40;;;;;;5041571;28;20242;-75
2024/01/06 09:48:58;;;;;;;1.50;0.65;;;7.60;99.60;;;;;;5042507;28;20040;-75
2024/01/06 09:51:25;;;;;;;3.05;0.80;;;7.50;99.60;;;;;;5060850;28;20319;-75
2024/01/06 09:54:00;;;;;;;4.53;0.80;;;7.50;99.70;;;;;;5061844;28;20033;-78
2024/01/06 09:56:28;;;;;;;2.60;0.80;;;7.60;99.30;;;;;;5061324;28;20029;-76
2024/01/06 09:58:54;;;;;;;2.28;0.70;;;7.70;99.10;;;;;;5051821;28;20033;-76
2024/01/06 10:01:20;;;;;;;2.72;0.85;;;7.70;99.70;;;;;;5043757;28;20029;-76
2024/01/06 10:03:46;;;;;;;1.75;0.70;;;7.80;99.90;;;;;;5047723;28;20036;-75
2024/01/06 10:06:13;;;;;;;1.50;0.60;;;7.80;99.00;;;;;;5042140;28;20033;-75
2024/01/06 10:08:42;;;;;;;1.47;0.77;;;7.80;99.40;;;;;;5052821;28;20024;-77
2024/01/06 10:11:09;;;;;;;1.33;0.70;;;7.80;99.50;;;;;;5044348;28;20036;-76
2024/01/06 10:13:35;;;;;;;3.30;0.90;;;7.80;99.90;;;;;;5059865;28;20037;-76
2024/01/06 10:16:01;;;;;;;2.92;0.90;;;7.90;99.90;;;;;;5053822;28;20028;-75
2024/01/06 10:18:29;;;;;;;3.47;1.10;;;7.90;99.40;;;;;;5056950;28;20030;-77
2024/01/06 10:20:56;;;;;;;2.58;0.90;;;7.90;99.90;;;;;;5050617;28;20096;-76
2024/01/06 10:23:27;;;;;;;2.72;1.02;;;7.70;99.90;;;;;;5050005;28;20033;-76
2024/01/06 10:25:59;;;;;;;2.72;0.82;;;7.70;99.90;;;;;;5048920;28;20033;-76
2024/01/06 10:28:25;;;;;;;2.40;1.13;;;7.70;99.90;;;;;;5042447;28;20131;-75
2024/01/06 10:30:55;;;;;;;4.28;1.00;;;7.80;99.90;;;;;;5055886;28;20028;-76
2024/01/06 10:33:22;;;;;;;1.92;0.82;;;7.70;99.90;;;;;;5059076;28;20126;-77
2024/01/06 10:35:49;;;;;;;1.70;0.90;;;7.60;99.90;;;;;;5050568;28;20111;-76
2024/01/06 10:38:15;;;;;;;2.38;0.95;;;7.60;99.90;;;;;;5047519;28;20017;-78
2024/01/06 10:40:59;;;;;;;2.17;0.98;;;7.60;99.90;;;;;;5051147;28;20102;-75
2024/01/06 10:43:29;;;;;;;3.05;1.10;;;7.60;99.90;;;;;;5052719;28;20033;-76
2024/01/06 10:45:59;;;;;;;3.17;1.00;;;7.50;99.90;;;;;;5062092;28;20032;-77
2024/01/06 10:48:26;;;;;;;2.25;0.95;;;7.50;99.90;;;;;;5061710;28;20024;-77
2024/01/06 10:50:53;;;;;;;2.08;0.98;;;7.60;99.90;;;;;;5061327;28;20083;-76
2024/01/06 10:53:22;;;;;;;2.47;0.95;;;7.50;99.90;;;;;;5043493;28;20124;-76
2024/01/06 10:55:50;;;;;;;2.90;0.88;;;7.50;99.90;;;;;;5041436;28;20344;-73
2024/01/06 10:58:17;;;;;;;3.15;1.27;;;7.50;99.90;;;;;;5042074;28;20128;-74
2024/01/06 11:00:43;;;;;;;2.75;0.90;;;7.60;99.90;;;;;;5041314;28;20103;-74
2024/01/06 11:03:09;;;;;;;2.85;1.20;;;7.40;99.90;;;;;;5041442;28;20038;-72
2024/01/06 11:05:36;;;;;;;3.00;1.20;;;7.40;99.90;;;;;;5051758;28;20028;-76
2024/01/06 11:08:04;;;;;;;2.33;1.00;;;7.50;99.90;;;;;;5048852;28;20049;-75
2024/01/06 11:10:36;;;;;;;4.15;0.90;;;7.40;99.90;;;;;;5061159;28;20037;-75
2024/01/06 11:13:20;;;;;;;3.17;0.90;;;7.40;99.90;;;;;;5061585;28;20041;-74
2024/01/06 11:15:52;;;;;;;1.92;0.80;;;7.40;99.90;;;;;;5056231;28;20033;-77
2024/01/06 11:18:38;;;;;;;2.47;0.88;;;7.40;99.90;;;;;;5060677;28;20043;-74
2024/01/06 11:21:24;;;;;;;2.25;0.90;;;7.40;99.90;;;;;;5051651;28;20339;-74
2024/01/06 11:24:26;;;;;;;1.98;0.65;;;7.40;99.90;;;;;;5051870;28;20029;-74
2024/01/06 11:26:59;;;;;;;3.08;0.80;;;7.40;99.90;;;;;;5043614;28;20087;-78
2024/01/06 11:29:30;;;;;;;2.78;1.05;;;7.50;99.90;;;;;;5045029;28;20320;-73
2024/01/06 11:32:25;;;;;;;2.83;1.10;;;7.50;99.90;;;;;;5044914;28;20041;-74
2024/01/06 11:34:52;;;;;;;2.22;0.88;;;7.50;99.90;;;;;;5044517;28;20345;-73
2024/01/06 11:38:16;;;;;;;3.15;1.27;;;7.40;99.90;;;;;;5044124;28;20276;-74
2024/01/06 11:40:42;;;;;;;3.47;1.60;;;7.40;99.90;;;;;;5042749;28;20037;-73
2024/01/06 11:43:12;;;;;;;4.13;1.90;;;7.40;99.90;;;;;;5065164;28;20041;-74
2024/01/06 11:45:41;;;;;;;2.70;1.50;;;7.40;99.90;;;;;;5084582;28;20016;-74
2024/01/06 11:48:12;;;;;;;2.97;1.70;;;7.40;99.90;;;;;;5084767;28;20032;-74
2024/01/06 11:50:39;;;;;;;4.38;1.65;;;7.40;99.90;;;;;;5069402;28;20043;-73
2024/01/06 11:53:05;;;;;;;2.95;1.60;;;7.40;99.90;;;;;;5064484;28;20024;-74
2024/01/06 11:55:31;;;;;;;3.00;1.80;;;7.40;99.90;;;;;;5062812;28;20100;-74
2024/01/06 11:58:01;;;;;;;5.28;2.33;;;7.30;99.90;;;;;;5048108;28;20224;-74
2024/01/06 12:00:28;;;;;;;3.20;1.63;;;7.20;99.90;;;;;;5044576;28;20053;-75
2024/01/06 12:02:57;;;;;;;3.30;1.77;;;7.20;99.90;;;;;;5044452;28;20034;-77
2024/01/06 12:05:26;;;;;;;3.47;1.90;;;7.20;99.90;;;;;;5044392;28;20029;-76
2024/01/06 12:08:00;;;;;;;3.15;2.08;;;7.30;99.90;;;;;;5049166;28;20354;-75
2024/01/06 12:10:27;;;;;;;2.88;1.85;;;7.20;99.90;;;;;;5060701;28;20042;-75
2024/01/06 12:13:02;;;;;;;2.40;1.60;;;7.20;99.90;;;;;;5053089;28;20328;-73
2024/01/06 12:15:30;;;;;;;2.67;1.65;;;7.30;99.90;;;;;;5043728;28;20087;-75
2024/01/06 12:17:56;;;;;;;3.53;2.10;;;7.30;99.90;;;;;;5044297;28;20076;-74
2024/01/06 12:20:25;;;;;;;3.17;1.80;;;7.20;99.90;;;;;;5044522;28;20028;-73
2024/01/06 12:22:55;;;;;;;3.92;1.88;;;7.20;99.90;;;;;;5061933;28;20096;-73
2024/01/06 12:25:22;;;;;;;3.15;1.73;;;7.10;99.90;;;;;;5054854;28;20048;-75
2024/01/06 12:27:48;;;;;;;3.67;1.83;;;7.10;99.90;;;;;;5061151;28;20180;-75
2024/01/06 12:30:16;;;;;;;3.85;2.08;;;7.10;99.90;;;;;;5050522;28;20021;-75
2024/01/06 12:32:47;;;;;;;3.20;2.13;;;7.00;99.90;;;;;;5053640;28;20060;-74
2024/01/06 12:35:13;;;;;;;3.30;1.88;;;6.90;99.90;;;;;;5053802;28;20041;-75
2024/01/06 12:37:41;;;;;;;2.75;1.80;;;6.90;99.90;;;;;;5052387;28;20298;-74
2024/01/06 12:40:09;;;;;;;5.18;2.35;;;7.00;99.90;;;;;;5054280;28;20035;-75
2024/01/06 12:42:36;;;;;;;;;;;6.90;99.90;;;;;;5053843;28;20021;-73
2024/01/06 12:45:02;;;;;;;2.90;1.80;;;7.00;99.90;;;;;;5054460;28;19911;-74
2024/01/06 12:47:30;;;;;;;3.33;1.92;;;7.10;99.90;;;;;;5052687;28;20045;-75
2024/01/06 12:49:56;;;;;;;4.53;2.17;;;7.00;99.90;;;;;;5054878;28;20033;-75
2024/01/06 12:52:22;;;;;;;4.20;2.50;;;7.10;99.90;;;;;;5043612;28;20281;-75
2024/01/06 12:54:48;;;;;;;3.97;2.00;;;7.10;99.90;;;;;;5044504;28;20021;-73
2024/01/06 12:57:14;;;;;;;4.43;2.50;;;7.10;99.90;;;;;;5056583;28;20013;-74